createdAt,value
2018-03-18T00:00:22.649Z,-4.62
2018-03-18T00:02:51.675Z,-4.54
2018-03-18T00:05:19.931Z,-4.30
2018-03-18T00:07:48.969Z,-4.17
2018-03-18T00:10:17.228Z,-4.23
2018-03-18T00:12:46.247Z,-4.11
2018-03-18T00:15:14.520Z,-4.43
2018-03-18T00:17:44.290Z,-4.71
2018-03-18T00:20:12.553Z,-4.58
2018-03-18T00:22:40.806Z,-4.02
2018-03-18T00:25:09.092Z,-4.76
2018-03-18T00:27:37.352Z,-4.80
2018-03-18T00:30:05.614Z,-4.77
2018-03-18T00:32:33.875Z,-4.69
2018-03-18T00:35:02.919Z,-4.69
2018-03-18T00:37:31.184Z,-4.67
2018-03-18T00:39:59.450Z,-4.28
2018-03-18T00:42:27.707Z,-3.88
2018-03-18T00:44:55.963Z,-4.52
2018-03-18T00:47:24.222Z,-4.42
2018-03-18T00:49:53.255Z,-4.74
2018-03-18T00:52:21.515Z,-4.94
2018-03-18T00:54:50.555Z,-4.93
2018-03-18T00:57:18.884Z,-4.66
2018-03-18T00:59:47.835Z,-4.65
2018-03-18T01:02:16.112Z,-5.09
2018-03-18T01:04:45.142Z,-4.66
2018-03-18T01:07:13.399Z,-4.56
2018-03-18T01:09:41.686Z,-4.64
2018-03-18T01:12:10.702Z,-4.99
2018-03-18T01:14:39.744Z,-4.88
2018-03-18T01:17:08.002Z,-4.76
2018-03-18T01:19:36.267Z,-4.95
2018-03-18T01:22:05.291Z,-5.10
2018-03-18T01:24:34.343Z,-4.94
2018-03-18T01:27:02.608Z,-4.99
2018-03-18T01:29:30.888Z,-4.81
2018-03-18T01:31:59.147Z,-5.17
2018-03-18T01:34:27.413Z,-5.12
2018-03-18T01:36:55.680Z,-5.22
2018-03-18T01:39:24.711Z,-5.30
2018-03-18T01:41:52.967Z,-5.17
2018-03-18T01:44:21.241Z,-5.47
2018-03-18T01:46:49.500Z,-5.50
2018-03-18T01:49:18.530Z,-5.47
2018-03-18T01:51:46.782Z,-5.23
2018-03-18T01:54:15.051Z,-5.22
2018-03-18T01:56:43.306Z,-5.69
2018-03-18T01:59:11.571Z,-5.73
2018-03-18T02:01:39.831Z,-5.62
2018-03-18T02:04:08.110Z,-5.62
2018-03-18T02:06:36.374Z,-5.59
2018-03-18T02:09:04.672Z,-5.64
2018-03-18T02:11:32.932Z,-5.52
2018-03-18T02:14:01.967Z,-5.64
2018-03-18T02:16:30.215Z,-5.46
2018-03-18T02:18:58.485Z,-5.23
2018-03-18T02:21:27.513Z,-5.51
2018-03-18T02:23:55.787Z,-5.49
2018-03-18T02:26:24.806Z,-5.31
2018-03-18T02:28:53.843Z,-5.50
2018-03-18T02:31:22.095Z,-5.55
2018-03-18T02:33:50.373Z,-5.92
2018-03-18T02:36:19.428Z,-5.95
2018-03-18T02:38:47.683Z,-5.79
2018-03-18T02:41:15.961Z,-5.66
2018-03-18T02:43:44.970Z,-5.84
2018-03-18T02:46:13.248Z,-5.75
2018-03-18T02:48:42.269Z,-5.65
2018-03-18T02:51:10.526Z,-5.76
2018-03-18T02:53:38.788Z,-5.77
2018-03-18T02:56:07.061Z,-6.03
2018-03-18T02:58:35.309Z,-5.87
2018-03-18T03:01:04.343Z,-6.06
2018-03-18T03:03:32.599Z,-5.87
2018-03-18T03:06:01.633Z,-5.76
2018-03-18T03:08:29.905Z,-5.68
2018-03-18T03:10:58.870Z,-5.69
2018-03-18T03:13:27.136Z,-5.91
2018-03-18T03:15:55.398Z,-5.77
2018-03-18T03:18:23.663Z,-5.57
2018-03-18T03:20:52.704Z,-6.02
2018-03-18T03:23:20.959Z,-5.57
2018-03-18T03:25:49.995Z,-5.77
2018-03-18T03:28:18.257Z,-5.80
2018-03-18T03:30:47.289Z,-5.66
2018-03-18T03:33:15.544Z,-5.78
2018-03-18T03:35:44.570Z,-5.63
2018-03-18T03:38:12.843Z,-5.40
2018-03-18T03:40:41.875Z,-5.69
2018-03-18T03:43:10.126Z,-5.77
2018-03-18T03:45:39.164Z,-5.62
2018-03-18T03:48:07.427Z,-5.33
2018-03-18T03:50:36.454Z,-5.62
2018-03-18T03:53:04.728Z,-5.52
2018-03-18T03:55:33.755Z,-5.60
2018-03-18T03:58:02.020Z,-5.84
2018-03-18T04:00:31.059Z,-5.47
2018-03-18T04:02:59.316Z,-5.03
2018-03-18T04:05:28.358Z,-4.94
2018-03-18T04:07:56.619Z,-5.71
2018-03-18T04:10:24.899Z,-5.57
2018-03-18T04:12:53.915Z,-5.66
2018-03-18T04:15:22.183Z,-5.45
2018-03-18T04:17:51.209Z,-5.66
2018-03-18T04:20:19.482Z,-5.80
2018-03-18T04:22:48.503Z,-5.67
2018-03-18T04:25:16.771Z,-5.35
2018-03-18T04:27:45.791Z,-5.85
2018-03-18T04:30:14.051Z,-5.60
2018-03-18T04:32:42.313Z,-5.56
2018-03-18T04:35:10.574Z,-5.23
2018-03-18T04:37:38.843Z,-5.75
2018-03-18T04:40:07.111Z,-5.46
2018-03-18T04:42:36.134Z,-5.28
2018-03-18T04:45:05.172Z,-5.18
2018-03-18T04:47:33.433Z,-4.85
2018-03-18T04:50:01.702Z,-4.90
2018-03-18T04:52:30.732Z,-4.85
2018-03-18T04:54:59.003Z,-4.85
2018-03-18T04:57:27.267Z,-5.61
2018-03-18T04:59:55.543Z,-5.12
2018-03-18T05:02:23.798Z,-4.90
2018-03-18T05:04:52.064Z,-5.21
2018-03-18T05:07:20.324Z,-5.28
2018-03-18T05:09:48.592Z,-5.48
2018-03-18T05:12:16.847Z,-5.47
2018-03-18T05:14:45.120Z,-5.21
2018-03-18T05:17:13.374Z,-5.20
2018-03-18T05:19:41.633Z,-5.57
2018-03-18T05:22:09.917Z,-5.67
2018-03-18T05:24:38.176Z,-5.66
2018-03-18T05:27:06.449Z,-5.88
2018-03-18T05:29:35.458Z,-5.76
2018-03-18T05:32:03.730Z,-5.67
2018-03-18T05:34:32.747Z,-5.94
2018-03-18T05:37:01.779Z,-6.07
2018-03-18T05:39:30.039Z,-6.10
2018-03-18T05:41:59.075Z,-6.01
2018-03-18T05:44:27.330Z,-5.79
2018-03-18T05:46:56.434Z,-6.12
2018-03-18T05:49:25.492Z,-5.98
2018-03-18T05:51:53.731Z,-6.08
2018-03-18T05:54:21.996Z,-6.11
2018-03-18T05:56:50.268Z,-5.75
2018-03-18T05:59:19.303Z,-5.81
2018-03-18T06:01:47.567Z,-5.92
2018-03-18T06:04:15.818Z,-5.63
2018-03-18T06:06:44.086Z,-5.21
2018-03-18T06:09:13.107Z,-5.65
2018-03-18T06:11:41.375Z,-5.51
2018-03-18T06:14:10.397Z,-5.66
2018-03-18T06:16:38.663Z,-5.37
2018-03-18T06:19:07.688Z,-5.63
2018-03-18T06:21:35.955Z,-5.27
2018-03-18T06:24:04.990Z,-4.95
2018-03-18T06:26:33.256Z,-5.28
2018-03-18T06:29:02.279Z,-5.41
2018-03-18T06:31:30.632Z,-5.40
2018-03-18T06:33:58.834Z,-5.21
2018-03-18T06:36:27.910Z,-5.10
2018-03-18T06:38:56.123Z,-5.02
2018-03-18T06:41:24.405Z,-5.35
2018-03-18T06:43:52.664Z,-5.27
2018-03-18T06:46:20.932Z,-4.95
2018-03-18T06:48:49.187Z,-4.88
2018-03-18T06:51:18.224Z,-4.71
2018-03-18T06:53:46.478Z,-4.41
2018-03-18T06:56:15.510Z,-4.51
2018-03-18T06:58:43.762Z,-4.68
2018-03-18T07:01:12.027Z,-5.07
2018-03-18T07:03:40.299Z,-4.95
2018-03-18T07:06:08.555Z,-4.47
2018-03-18T07:08:36.821Z,-4.47
2018-03-18T07:11:05.846Z,-4.35
2018-03-18T07:13:34.104Z,-4.93
2018-03-18T07:16:02.367Z,-4.60
2018-03-18T07:18:30.628Z,-4.46
2018-03-18T07:20:58.892Z,-4.93
2018-03-18T07:23:27.918Z,-4.91
2018-03-18T07:25:56.187Z,-4.41
2018-03-18T07:28:25.211Z,-4.87
2018-03-18T07:30:53.468Z,-4.92
2018-03-18T07:33:21.723Z,-5.02
2018-03-18T07:35:49.982Z,-4.65
2018-03-18T07:38:18.256Z,-4.69
2018-03-18T07:40:46.520Z,-4.79
2018-03-18T07:43:15.538Z,-4.64
2018-03-18T07:45:44.581Z,-4.22
2018-03-18T07:48:12.832Z,-4.35
2018-03-18T07:50:41.864Z,-3.83
2018-03-18T07:53:10.120Z,-3.49
2018-03-18T07:55:39.154Z,-3.80
2018-03-18T07:58:07.415Z,-3.92
2018-03-18T08:00:36.450Z,-3.61
2018-03-18T08:03:05.475Z,-3.70
2018-03-18T08:05:33.722Z,-3.91
2018-03-18T08:08:02.774Z,-4.14
2018-03-18T08:10:31.018Z,-3.94
2018-03-18T08:12:59.291Z,-3.83
2018-03-18T08:15:27.548Z,-4.38
2018-03-18T08:17:55.820Z,-4.34
2018-03-18T08:20:24.075Z,-4.05
2018-03-18T08:22:52.344Z,-4.11
2018-03-18T08:25:21.362Z,-4.00
2018-03-18T08:27:50.386Z,-4.11
2018-03-18T08:30:18.663Z,-4.38
2018-03-18T08:32:46.923Z,-4.52
2018-03-18T08:35:15.790Z,-4.12
2018-03-18T08:37:44.049Z,-4.16
2018-03-18T08:40:12.304Z,-4.44
2018-03-18T08:42:40.576Z,-4.23
2018-03-18T08:45:08.835Z,-3.48
2018-03-18T08:47:37.100Z,-3.55
2018-03-18T08:50:05.351Z,-3.59
2018-03-18T08:52:33.623Z,-3.15
2018-03-18T08:55:01.870Z,-3.13
2018-03-18T08:57:30.159Z,-2.57
2018-03-18T08:59:58.410Z,-2.92
2018-03-18T09:02:26.675Z,-2.61
2018-03-18T09:04:54.937Z,-2.35
2018-03-18T09:07:23.203Z,-3.10
2018-03-18T09:09:51.471Z,-3.27
2018-03-18T09:12:20.510Z,-2.88
2018-03-18T09:14:48.764Z,-3.37
2018-03-18T09:17:17.798Z,-3.28
2018-03-18T09:19:46.052Z,-3.37
2018-03-18T09:22:14.306Z,-3.27
2018-03-18T09:24:42.567Z,-2.93
2018-03-18T09:27:10.829Z,-3.08
2018-03-18T09:29:39.851Z,-3.08
2018-03-18T09:32:08.124Z,-2.68
2018-03-18T09:34:37.146Z,-2.64
2018-03-18T09:37:05.403Z,-2.59
2018-03-18T09:39:34.422Z,-3.05
2018-03-18T09:42:03.456Z,-3.21
2018-03-18T09:44:31.706Z,-2.71
2018-03-18T09:47:00.742Z,-2.56
2018-03-18T09:49:28.999Z,-3.10
2018-03-18T09:51:57.264Z,-3.23
2018-03-18T09:54:25.515Z,-2.93
2018-03-18T09:56:53.782Z,-2.54
